createdAt,value
2023-03-29T00:00:02.431Z,77
2023-03-29T00:01:02.677Z,77
2023-03-29T00:03:01.727Z,77
2023-03-29T00:04:03.316Z,78
2023-03-29T00:05:02.313Z,79
2023-03-29T00:06:02.159Z,81
2023-03-29T00:07:01.999Z,80
2023-03-29T00:08:01.998Z,80
2023-03-29T00:09:02.181Z,80
2023-03-29T00:10:01.937Z,81
2023-03-29T00:11:02.260Z,82
2023-03-29T00:12:01.894Z,83
2023-03-29T00:13:01.597Z,84
2023-03-29T00:14:01.577Z,84
2023-03-29T00:15:01.490Z,84
2023-03-29T00:16:01.517Z,86
2023-03-29T00:17:02.563Z,87
2023-03-29T00:18:02.491Z,88
2023-03-29T00:19:02.380Z,87
2023-03-29T00:20:02.313Z,86
2023-03-29T00:21:02.892Z,84
2023-03-29T00:22:01.894Z,84
2023-03-29T00:23:01.869Z,83
2023-03-29T00:24:01.786Z,83
2023-03-29T00:25:01.759Z,85
2023-03-29T00:26:01.654Z,86
2023-03-29T00:27:01.711Z,88
2023-03-29T00:28:01.605Z,89
2023-03-29T00:29:01.636Z,90
2023-03-29T00:30:01.487Z,91
2023-03-29T00:31:03.023Z,93
2023-03-29T00:33:01.974Z,92
2023-03-29T00:34:01.751Z,93
2023-03-29T00:35:01.802Z,92
2023-03-29T00:36:01.739Z,93
2023-03-29T00:37:01.760Z,94
2023-03-29T00:38:01.634Z,95
2023-03-29T00:39:01.702Z,94
2023-03-29T00:40:01.514Z,93
2023-03-29T00:41:02.140Z,93
2023-03-29T00:42:02.368Z,94
2023-03-29T00:43:02.227Z,94
2023-03-29T00:44:02.395Z,94
2023-03-29T00:45:02.107Z,96
2023-03-29T00:46:02.251Z,96
2023-03-29T00:48:02.076Z,95
2023-03-29T00:49:01.854Z,95
2023-03-29T00:50:01.937Z,96
2023-03-29T00:51:02.452Z,96
2023-03-29T00:52:02.331Z,96
2023-03-29T00:53:02.396Z,96
2023-03-29T00:54:02.246Z,95
2023-03-29T00:55:02.293Z,96
2023-03-29T00:56:02.042Z,96
2023-03-29T00:57:02.085Z,96
2023-03-29T00:58:02.104Z,96
2023-03-29T00:59:01.976Z,97
2023-03-29T01:00:02.156Z,97
2023-03-29T01:01:03.018Z,97
2023-03-29T01:03:02.028Z,97
2023-03-29T01:04:01.916Z,98
2023-03-29T01:05:01.896Z,99
2023-03-29T01:06:01.687Z,98
2023-03-29T01:07:01.825Z,99
2023-03-29T01:08:01.589Z,99
2023-03-29T01:09:01.680Z,98
2023-03-29T01:10:01.483Z,99
2023-03-29T01:11:03.193Z,99
2023-03-29T01:12:01.444Z,100
2023-03-29T01:13:02.462Z,99
2023-03-29T01:14:02.364Z,99
2023-03-29T01:15:02.563Z,99
2023-03-29T01:16:02.530Z,100
2023-03-29T01:17:02.387Z,100
2023-03-29T01:18:02.562Z,100
2023-03-29T01:19:02.449Z,100
2023-03-29T01:20:02.374Z,100
2023-03-29T01:21:02.471Z,100
2023-03-29T01:22:02.517Z,100
2023-03-29T01:23:02.419Z,100
2023-03-29T01:24:02.460Z,100
2023-03-29T01:25:02.320Z,100
2023-03-29T01:26:02.341Z,100
2023-03-29T01:27:02.219Z,100
2023-03-29T01:28:02.254Z,100
2023-03-29T01:29:02.106Z,100
2023-03-29T01:30:02.073Z,100
2023-03-29T01:31:02.616Z,100
2023-03-29T01:33:01.805Z,100
2023-03-29T01:34:01.561Z,100
2023-03-29T01:35:01.577Z,100
2023-03-29T01:36:01.652Z,100
2023-03-29T01:37:02.524Z,100
2023-03-29T01:38:02.443Z,100
2023-03-29T01:39:02.531Z,100
2023-03-29T01:40:02.402Z,100
2023-03-29T01:41:02.668Z,100
2023-03-29T01:42:02.126Z,100
2023-03-29T01:43:02.138Z,100
2023-03-29T01:44:02.026Z,100
2023-03-29T01:45:01.966Z,100
2023-03-29T01:46:02.063Z,100
2023-03-29T01:47:01.902Z,100
2023-03-29T01:48:02.109Z,100
2023-03-29T01:49:01.930Z,100
2023-03-29T01:50:01.984Z,100
2023-03-29T01:51:02.507Z,100
2023-03-29T01:52:01.574Z,100
2023-03-29T01:53:01.584Z,100
2023-03-29T01:54:02.544Z,100
2023-03-29T01:55:02.434Z,100
2023-03-29T01:56:02.482Z,100
2023-03-29T01:57:02.423Z,100
2023-03-29T01:58:02.416Z,100
2023-03-29T01:59:02.309Z,100
2023-03-29T02:00:03.432Z,100
2023-03-29T02:01:02.729Z,100
2023-03-29T02:02:02.418Z,100
2023-03-29T02:03:02.636Z,100
2023-03-29T02:04:01.402Z,100
2023-03-29T02:05:02.452Z,100
2023-03-29T02:06:02.479Z,100
2023-03-29T02:07:02.386Z,100
2023-03-29T02:08:02.338Z,100
2023-03-29T02:09:02.337Z,100
2023-03-29T02:10:02.274Z,100
2023-03-29T02:11:02.820Z,100
2023-03-29T02:12:01.955Z,100
2023-03-29T02:13:01.883Z,100
2023-03-29T02:14:01.900Z,100
2023-03-29T02:15:01.701Z,100
2023-03-29T02:16:01.796Z,100
2023-03-29T02:18:01.630Z,100
2023-03-29T02:19:02.518Z,100
2023-03-29T02:20:02.368Z,100
2023-03-29T02:21:02.872Z,100
2023-03-29T02:22:02.164Z,100
2023-03-29T02:23:02.191Z,100
2023-03-29T02:24:01.990Z,100
2023-03-29T02:25:01.911Z,100
2023-03-29T02:26:01.980Z,100
2023-03-29T02:27:01.863Z,100
2023-03-29T02:28:01.908Z,100
2023-03-29T02:29:01.830Z,100
2023-03-29T02:30:01.861Z,100
2023-03-29T02:31:02.163Z,100
2023-03-29T02:32:02.197Z,100
2023-03-29T02:33:02.548Z,100
2023-03-29T02:34:02.394Z,100
2023-03-29T02:35:02.227Z,100
2023-03-29T02:36:02.325Z,100
2023-03-29T02:37:02.230Z,100
2023-03-29T02:38:02.059Z,100
2023-03-29T02:39:02.147Z,100
2023-03-29T02:40:01.950Z,100
2023-03-29T02:41:02.473Z,100
2023-03-29T02:42:01.629Z,100
2023-03-29T02:43:01.676Z,100
2023-03-29T02:44:01.484Z,100
2023-03-29T02:45:01.882Z,100
2023-03-29T02:46:01.725Z,100
2023-03-29T02:47:02.323Z,100
2023-03-29T02:48:02.344Z,100
2023-03-29T02:49:02.236Z,100
2023-03-29T02:50:02.084Z,100
2023-03-29T02:51:02.393Z,100
2023-03-29T02:52:01.580Z,100
2023-03-29T02:53:01.652Z,100
2023-03-29T02:54:01.470Z,100
2023-03-29T02:55:02.541Z,100
2023-03-29T02:56:02.521Z,100
2023-03-29T02:57:02.579Z,100
2023-03-29T02:58:02.338Z,100
2023-03-29T02:59:02.373Z,100
2023-03-29T03:00:02.269Z,100
2023-03-29T03:01:02.981Z,100
2023-03-29T03:03:02.555Z,100
2023-03-29T03:04:02.515Z,100
2023-03-29T03:05:02.356Z,100
2023-03-29T03:06:02.408Z,100
2023-03-29T03:07:02.307Z,100
2023-03-29T03:08:02.326Z,100
2023-03-29T03:09:02.248Z,100
2023-03-29T03:10:02.335Z,100
2023-03-29T03:11:02.790Z,100
2023-03-29T03:12:02.231Z,100
2023-03-29T03:13:02.177Z,100
2023-03-29T03:14:01.980Z,100
2023-03-29T03:15:01.960Z,100
2023-03-29T03:16:02.102Z,100
2023-03-29T03:17:05.032Z,100
2023-03-29T03:18:01.824Z,100
2023-03-29T03:19:01.777Z,100
2023-03-29T03:20:01.608Z,100
2023-03-29T03:21:02.400Z,100
2023-03-29T03:22:01.539Z,100
2023-03-29T03:23:01.551Z,100
2023-03-29T03:24:02.865Z,100
2023-03-29T03:25:01.473Z,100
2023-03-29T03:26:01.544Z,100
2023-03-29T03:27:02.490Z,100
2023-03-29T03:28:02.362Z,100
2023-03-29T03:29:02.359Z,100
2023-03-29T03:30:02.276Z,100
2023-03-29T03:31:02.716Z,100
2023-03-29T03:33:01.914Z,100
2023-03-29T03:34:01.637Z,100
2023-03-29T03:35:01.706Z,100
2023-03-29T03:36:01.767Z,100
2023-03-29T03:37:01.670Z,100
2023-03-29T03:38:01.474Z,100
2023-03-29T03:39:02.542Z,100
2023-03-29T03:40:02.466Z,100
2023-03-29T03:41:02.954Z,100
2023-03-29T03:42:01.915Z,100
2023-03-29T03:43:01.998Z,100
2023-03-29T03:44:01.811Z,100
2023-03-29T03:45:01.845Z,100
2023-03-29T03:46:01.869Z,100
2023-03-29T03:47:01.751Z,100
2023-03-29T03:48:01.880Z,100
2023-03-29T03:49:01.650Z,100
2023-03-29T03:50:01.675Z,100
2023-03-29T03:51:01.897Z,100
2023-03-29T03:52:02.072Z,100
2023-03-29T03:53:02.083Z,100
2023-03-29T03:54:01.939Z,100
2023-03-29T03:55:01.894Z,100
2023-03-29T03:56:01.959Z,100
2023-03-29T03:57:01.915Z,100
2023-03-29T03:58:01.827Z,100
2023-03-29T03:59:01.706Z,100
2023-03-29T04:00:02.700Z,100
2023-03-29T04:01:02.190Z,100
2023-03-29T04:02:02.412Z,100
2023-03-29T04:03:02.783Z,100
2023-03-29T04:04:01.996Z,100
2023-03-29T04:05:01.945Z,100
2023-03-29T04:06:01.777Z,100
2023-03-29T04:07:01.869Z,100
2023-03-29T04:08:01.747Z,100
2023-03-29T04:09:01.783Z,100
2023-03-29T04:10:01.599Z,100
2023-03-29T04:11:02.070Z,100
2023-03-29T04:12:01.990Z,100
2023-03-29T04:13:01.940Z,100
2023-03-29T04:14:02.000Z,100
2023-03-29T04:15:01.813Z,100
2023-03-29T04:16:02.242Z,100
2023-03-29T04:17:01.822Z,100
2023-03-29T04:18:02.018Z,100
2023-03-29T04:19:02.090Z,100
2023-03-29T04:20:01.842Z,100
2023-03-29T04:21:02.193Z,100
2023-03-29T04:22:02.341Z,100
2023-03-29T04:23:02.213Z,100
2023-03-29T04:24:02.300Z,100
2023-03-29T04:25:02.290Z,100
2023-03-29T04:26:02.151Z,100
2023-03-29T04:27:02.147Z,100
2023-03-29T04:28:02.036Z,100
2023-03-29T04:29:02.012Z,100
2023-03-29T04:30:02.025Z,100
2023-03-29T04:31:02.462Z,100
2023-03-29T04:32:02.440Z,100
2023-03-29T04:33:02.572Z,100
2023-03-29T04:34:02.372Z,100
2023-03-29T04:35:02.420Z,100
2023-03-29T04:36:02.399Z,100
2023-03-29T04:37:02.358Z,100
2023-03-29T04:38:02.239Z,100
2023-03-29T04:39:02.303Z,100
2023-03-29T04:40:02.244Z,100
2023-03-29T04:41:02.465Z,100
2023-03-29T04:42:01.584Z,100
2023-03-29T04:43:01.460Z,100
2023-03-29T04:44:02.519Z,100
2023-03-29T04:45:02.401Z,100
2023-03-29T04:46:02.534Z,100
2023-03-29T04:48:02.218Z,100
2023-03-29T04:49:01.980Z,100
2023-03-29T04:50:01.903Z,100
2023-03-29T04:51:02.307Z,100
2023-03-29T04:52:02.538Z,100
2023-03-29T04:53:02.422Z,100
2023-03-29T04:54:02.458Z,100
2023-03-29T04:55:02.323Z,100
2023-03-29T04:56:02.368Z,100
2023-03-29T04:57:02.331Z,100
2023-03-29T04:58:02.300Z,100
2023-03-29T04:59:02.264Z,100
2023-03-29T05:00:02.155Z,100
2023-03-29T05:01:02.806Z,100
2023-03-29T05:03:01.898Z,100
2023-03-29T05:04:01.888Z,100
2023-03-29T05:05:01.765Z,100
2023-03-29T05:06:01.580Z,100
2023-03-29T05:07:01.674Z,100
2023-03-29T05:08:01.565Z,100
2023-03-29T05:09:02.299Z,100
2023-03-29T05:10:02.283Z,100
2023-03-29T05:11:02.509Z,100
2023-03-29T05:12:01.664Z,100
2023-03-29T05:13:01.459Z,100
2023-03-29T05:14:02.496Z,100
2023-03-29T05:15:02.359Z,100
2023-03-29T05:16:02.586Z,100
2023-03-29T05:18:02.288Z,100
2023-03-29T05:19:02.077Z,100
2023-03-29T05:20:02.024Z,100
2023-03-29T05:21:02.451Z,100
2023-03-29T05:22:01.515Z,100
2023-03-29T05:23:01.596Z,100
2023-03-29T05:24:02.559Z,100
2023-03-29T05:25:02.441Z,100
2023-03-29T05:26:02.429Z,100
2023-03-29T05:27:02.468Z,100
2023-03-29T05:28:02.398Z,100
2023-03-29T05:29:02.279Z,100
2023-03-29T05:30:02.412Z,100
2023-03-29T05:31:02.862Z,100
2023-03-29T05:33:02.074Z,100
2023-03-29T05:34:01.849Z,100
2023-03-29T05:35:01.821Z,100
2023-03-29T05:36:01.761Z,100
2023-03-29T05:37:01.760Z,100
2023-03-29T05:38:01.602Z,100
2023-03-29T05:39:01.661Z,100
2023-03-29T05:40:06.471Z,100
2023-03-29T05:41:02.599Z,100
2023-03-29T05:42:01.776Z,100
2023-03-29T05:43:01.639Z,100
2023-03-29T05:44:01.757Z,100
2023-03-29T05:45:01.588Z,100
2023-03-29T05:46:01.645Z,100
2023-03-29T05:47:02.432Z,100
2023-03-29T05:48:02.474Z,100
2023-03-29T05:49:02.359Z,100
2023-03-29T05:50:02.267Z,100
2023-03-29T05:51:02.708Z,100
2023-03-29T05:52:01.698Z,100
2023-03-29T05:53:01.762Z,100
2023-03-29T05:54:01.550Z,100
2023-03-29T05:55:01.640Z,100
2023-03-29T05:56:01.492Z,100
2023-03-29T05:57:02.531Z,100
2023-03-29T05:58:02.378Z,100
2023-03-29T05:59:02.382Z,100
2023-03-29T06:00:02.408Z,100
2023-03-29T06:01:02.695Z,100
2023-03-29T06:03:20.790Z,100
2023-03-29T06:04:01.900Z,100
2023-03-29T06:05:02.022Z,100
2023-03-29T06:06:01.923Z,100
2023-03-29T06:07:01.835Z,100
2023-03-29T06:08:01.843Z,100
2023-03-29T06:09:01.689Z,100
2023-03-29T06:10:01.753Z,100
2023-03-29T06:11:05.331Z,100
2023-03-29T06:12:02.463Z,100
2023-03-29T06:13:03.684Z,100
2023-03-29T06:14:02.312Z,100
2023-03-29T06:15:02.312Z,100
2023-03-29T06:16:02.273Z,100
2023-03-29T06:17:02.261Z,100
2023-03-29T06:18:02.358Z,100
2023-03-29T06:19:02.263Z,100
2023-03-29T06:20:02.086Z,100
2023-03-29T06:21:02.504Z,100
2023-03-29T06:22:01.932Z,100
2023-03-29T06:23:01.993Z,100
2023-03-29T06:24:02.052Z,100
2023-03-29T06:25:02.087Z,100
2023-03-29T06:26:02.142Z,100
2023-03-29T06:27:02.010Z,100
2023-03-29T06:28:01.939Z,100
2023-03-29T06:29:01.941Z,100
2023-03-29T06:30:01.792Z,100
2023-03-29T06:31:03.709Z,100
2023-03-29T06:32:01.697Z,100
2023-03-29T06:33:01.790Z,100
2023-03-29T06:34:01.583Z,100
2023-03-29T06:35:01.643Z,100
2023-03-29T06:36:01.599Z,100
2023-03-29T06:37:01.541Z,100
2023-03-29T06:38:02.482Z,100
2023-03-29T06:39:02.368Z,100
2023-03-29T06:40:02.441Z,100
2023-03-29T06:41:02.804Z,100
2023-03-29T06:42:20.447Z,100
2023-03-29T06:43:01.484Z,100
2023-03-29T06:44:01.514Z,100
2023-03-29T06:45:02.490Z,100
2023-03-29T06:46:02.538Z,100
2023-03-29T06:47:02.396Z,100
2023-03-29T06:48:02.587Z,100
2023-03-29T06:49:02.356Z,100
2023-03-29T06:50:02.449Z,100
2023-03-29T06:51:02.801Z,100
2023-03-29T06:52:02.011Z,100
2023-03-29T06:53:01.848Z,100
2023-03-29T06:54:01.894Z,100
2023-03-29T06:55:01.852Z,100
2023-03-29T06:56:01.738Z,99
2023-03-29T06:57:01.734Z,100
2023-03-29T06:58:03.106Z,100
2023-03-29T06:59:01.822Z,100
2023-03-29T07:00:01.921Z,99
2023-03-29T07:01:02.022Z,99
2023-03-29T07:02:01.851Z,96
2023-03-29T07:03:01.990Z,94
2023-03-29T07:04:01.861Z,95
2023-03-29T07:05:01.789Z,92
2023-03-29T07:06:01.637Z,97
2023-03-29T07:07:01.998Z,90
2023-03-29T07:08:01.664Z,91
2023-03-29T07:09:02.020Z,92
2023-03-29T07:10:01.691Z,91
2023-03-29T07:11:02.097Z,91
2023-03-29T07:12:02.063Z,86
2023-03-29T07:13:02.061Z,84
2023-03-29T07:14:02.110Z,83
2023-03-29T07:15:01.956Z,84
2023-03-29T07:16:01.973Z,81
2023-03-29T07:17:02.095Z,81
2023-03-29T07:18:02.267Z,79
2023-03-29T07:19:02.073Z,78
2023-03-29T07:20:02.126Z,78
2023-03-29T07:21:02.584Z,79
2023-03-29T07:22:01.669Z,76
2023-03-29T07:23:01.878Z,77
2023-03-29T07:24:01.536Z,76
2023-03-29T07:25:01.560Z,71
2023-03-29T07:26:01.485Z,72
2023-03-29T07:27:05.152Z,73
2023-03-29T07:28:01.932Z,72
2023-03-29T07:29:01.986Z,72
2023-03-29T07:30:01.860Z,71
2023-03-29T07:31:02.654Z,71
2023-03-29T07:33:02.174Z,70
2023-03-29T07:34:01.994Z,70
2023-03-29T07:35:01.949Z,70
2023-03-29T07:36:02.239Z,70
2023-03-29T07:37:01.988Z,69
2023-03-29T07:38:01.922Z,69
2023-03-29T07:39:02.062Z,69
2023-03-29T07:40:01.975Z,68
2023-03-29T07:41:02.220Z,68
2023-03-29T07:42:02.478Z,68
2023-03-29T07:43:02.361Z,69
2023-03-29T07:44:04.610Z,68
2023-03-29T07:45:02.259Z,67
2023-03-29T07:46:02.530Z,68
2023-03-29T07:47:02.243Z,68
2023-03-29T07:48:02.405Z,68
2023-03-29T07:49:02.243Z,67
2023-03-29T07:50:02.119Z,67
2023-03-29T07:51:02.590Z,66
2023-03-29T07:52:01.760Z,67
2023-03-29T07:53:01.769Z,67
2023-03-29T07:54:01.696Z,67
2023-03-29T07:55:01.658Z,66
2023-03-29T07:56:01.583Z,66
2023-03-29T07:57:01.648Z,65
2023-03-29T07:58:02.546Z,66
2023-03-29T07:59:02.437Z,67
2023-03-29T08:00:02.500Z,67
2023-03-29T08:01:02.920Z,65
2023-03-29T08:02:02.275Z,66
2023-03-29T08:03:02.543Z,66
2023-03-29T08:04:02.520Z,65
2023-03-29T08:05:01.688Z,65
2023-03-29T08:06:02.538Z,65
2023-03-29T08:07:02.428Z,65
2023-03-29T08:08:02.483Z,64
2023-03-29T08:09:02.313Z,64
2023-03-29T08:10:02.458Z,64
2023-03-29T08:11:02.669Z,64
2023-03-29T08:12:01.790Z,63
2023-03-29T08:13:01.668Z,65
2023-03-29T08:14:01.720Z,64
2023-03-29T08:15:01.569Z,64
2023-03-29T08:16:01.628Z,63
2023-03-29T08:17:02.420Z,62
2023-03-29T08:18:02.378Z,61
2023-03-29T08:19:02.366Z,63
2023-03-29T08:20:02.240Z,62
2023-03-29T08:21:02.778Z,62
2023-03-29T08:22:02.454Z,61
2023-03-29T08:23:02.308Z,61
2023-03-29T08:24:02.368Z,62
2023-03-29T08:25:02.281Z,61
2023-03-29T08:26:02.303Z,62
2023-03-29T08:27:02.290Z,61
2023-03-29T08:28:02.140Z,63
2023-03-29T08:29:02.238Z,62
2023-03-29T08:30:02.049Z,62
2023-03-29T08:31:02.447Z,63
2023-03-29T08:32:02.400Z,61
2023-03-29T08:33:02.383Z,61
2023-03-29T08:34:02.280Z,61
2023-03-29T08:35:02.367Z,60
2023-03-29T08:36:02.365Z,62
2023-03-29T08:37:02.437Z,60
2023-03-29T08:38:02.398Z,59
2023-03-29T08:39:02.313Z,59
2023-03-29T08:40:02.279Z,59
2023-03-29T08:41:02.675Z,59
2023-03-29T08:42:01.668Z,60
2023-03-29T08:43:01.719Z,60
2023-03-29T08:44:01.628Z,60
2023-03-29T08:45:01.715Z,60
2023-03-29T08:46:01.577Z,60
2023-03-29T08:47:02.534Z,60
2023-03-29T08:48:02.675Z,60
2023-03-29T08:49:01.425Z,60
2023-03-29T08:50:02.446Z,60
2023-03-29T08:51:02.888Z,60
2023-03-29T08:52:02.062Z,61
2023-03-29T08:53:02.148Z,60
2023-03-29T08:54:02.024Z,59
2023-03-29T08:55:02.056Z,59
2023-03-29T08:56:02.025Z,60
2023-03-29T08:57:02.012Z,59
2023-03-29T08:58:01.945Z,59
2023-03-29T08:59:02.009Z,60
2023-03-29T09:00:03.035Z,59
2023-03-29T09:01:02.380Z,59
2023-03-29T09:02:02.344Z,57
2023-03-29T09:03:02.632Z,56
2023-03-29T09:04:01.728Z,57
2023-03-29T09:05:01.600Z,57
2023-03-29T09:06:02.683Z,59
2023-03-29T09:07:02.417Z,56
2023-03-29T09:08:02.399Z,56
2023-03-29T09:09:02.330Z,55
2023-03-29T09:10:02.335Z,57
2023-03-29T09:11:02.638Z,56
2023-03-29T09:12:01.899Z,55
2023-03-29T09:13:01.772Z,55
2023-03-29T09:14:01.993Z,57
2023-03-29T09:15:02.064Z,55
2023-03-29T09:16:01.957Z,53
2023-03-29T09:17:01.840Z,55
2023-03-29T09:18:02.045Z,55
2023-03-29T09:19:01.737Z,54
2023-03-29T09:20:01.736Z,52
2023-03-29T09:21:02.087Z,51
2023-03-29T09:22:02.128Z,53
2023-03-29T09:23:02.154Z,52
2023-03-29T09:24:02.023Z,53
2023-03-29T09:25:01.997Z,53
2023-03-29T09:26:02.067Z,52
2023-03-29T09:27:01.896Z,53
2023-03-29T09:28:01.954Z,52
2023-03-29T09:29:01.835Z,51
2023-03-29T09:30:01.984Z,54
2023-03-29T09:31:02.333Z,54
2023-03-29T09:32:02.435Z,54
2023-03-29T09:33:02.376Z,54
2023-03-29T09:34:02.191Z,54
2023-03-29T09:35:02.168Z,54
2023-03-29T09:36:02.106Z,51
2023-03-29T09:37:02.014Z,52
2023-03-29T09:38:02.064Z,52
2023-03-29T09:39:01.940Z,53
2023-03-29T09:40:05.307Z,52
2023-03-29T09:41:02.540Z,52
2023-03-29T09:42:01.519Z,54
2023-03-29T09:43:01.618Z,52
2023-03-29T09:44:01.472Z,52
2023-03-29T09:45:02.611Z,51
2023-03-29T09:46:02.532Z,51
2023-03-29T09:48:01.700Z,53
2023-03-29T09:49:01.498Z,51
2023-03-29T09:50:02.622Z,51
2023-03-29T09:51:02.706Z,50
2023-03-29T09:52:01.949Z,49
2023-03-29T09:53:01.616Z,49
2023-03-29T09:54:01.643Z,51
2023-03-29T09:55:01.652Z,50
2023-03-29T09:56:02.066Z,49
2023-03-29T09:57:02.251Z,49
2023-03-29T09:58:01.958Z,50
2023-03-29T09:59:01.904Z,49
2023-03-29T10:00:03.481Z,48
2023-03-29T10:01:03.053Z,50
2023-03-29T10:03:01.872Z,46
2023-03-29T10:04:01.750Z,46
2023-03-29T10:05:01.836Z,47
2023-03-29T10:06:01.577Z,46
2023-03-29T10:07:01.626Z,46
2023-03-29T10:08:01.515Z,46
2023-03-29T10:09:02.533Z,45
2023-03-29T10:10:02.328Z,46
2023-03-29T10:11:02.745Z,44
2023-03-29T10:12:01.759Z,46
2023-03-29T10:13:01.802Z,44
2023-03-29T10:14:01.670Z,43
2023-03-29T10:15:01.691Z,43
2023-03-29T10:16:01.704Z,42
2023-03-29T10:17:01.690Z,43
2023-03-29T10:18:01.761Z,42
2023-03-29T10:19:01.776Z,41
2023-03-29T10:20:04.649Z,44
2023-03-29T10:21:03.293Z,43
2023-03-29T10:22:01.577Z,45
2023-03-29T10:23:01.571Z,43
2023-03-29T10:24:01.463Z,43
2023-03-29T10:25:02.571Z,43
2023-03-29T10:26:02.446Z,43
2023-03-29T10:27:02.490Z,42
2023-03-29T10:28:02.340Z,44
2023-03-29T10:29:02.398Z,42
2023-03-29T10:30:02.261Z,43
2023-03-29T10:31:03.046Z,43
2023-03-29T10:33:02.098Z,42
2023-03-29T10:34:01.834Z,43
2023-03-29T10:35:01.866Z,41
2023-03-29T10:36:01.815Z,42
2023-03-29T10:37:01.768Z,43
2023-03-29T10:38:01.659Z,42
2023-03-29T10:39:06.143Z,43
2023-03-29T10:40:02.056Z,43
2023-03-29T10:41:02.414Z,43
2023-03-29T10:42:02.542Z,41
2023-03-29T10:43:02.425Z,42
2023-03-29T10:44:02.464Z,40
2023-03-29T10:45:02.377Z,41
2023-03-29T10:46:02.474Z,42
2023-03-29T10:47:02.287Z,42
2023-03-29T10:48:02.482Z,42
2023-03-29T10:49:02.272Z,43
2023-03-29T10:50:02.333Z,42
2023-03-29T10:51:02.726Z,41
2023-03-29T10:52:01.897Z,42
2023-03-29T10:53:01.746Z,41
2023-03-29T10:54:01.799Z,43
2023-03-29T10:55:01.726Z,43
2023-03-29T10:56:01.694Z,42
2023-03-29T10:57:01.633Z,41
2023-03-29T10:58:01.565Z,42
2023-03-29T10:59:01.443Z,42
2023-03-29T11:00:02.511Z,42
2023-03-29T11:01:02.784Z,41
2023-03-29T11:03:02.186Z,40
2023-03-29T11:04:02.386Z,41
2023-03-29T11:05:02.211Z,41
2023-03-29T11:06:02.236Z,42
2023-03-29T11:07:02.270Z,42
2023-03-29T11:08:02.110Z,44
2023-03-29T11:09:02.255Z,42
2023-03-29T11:10:02.006Z,43
2023-03-29T11:11:02.510Z,45
2023-03-29T11:12:16.300Z,42
2023-03-29T11:13:02.324Z,44
2023-03-29T11:14:02.174Z,43
2023-03-29T11:15:02.198Z,42
2023-03-29T11:16:02.190Z,42
2023-03-29T11:17:02.051Z,43
2023-03-29T11:18:02.208Z,43
2023-03-29T11:19:01.932Z,43
2023-03-29T11:20:05.388Z,44
2023-03-29T11:21:02.561Z,44
2023-03-29T11:22:01.670Z,45
2023-03-29T11:23:01.693Z,44
2023-03-29T11:24:01.516Z,44
2023-03-29T11:25:01.584Z,45
2023-03-29T11:26:02.550Z,44
2023-03-29T11:27:02.435Z,42
2023-03-29T11:28:02.527Z,43
2023-03-29T11:29:02.434Z,45
2023-03-29T11:30:02.552Z,45
2023-03-29T11:31:02.979Z,43
2023-03-29T11:32:02.412Z,43
2023-03-29T11:33:02.472Z,43
2023-03-29T11:34:02.272Z,43
2023-03-29T11:35:02.428Z,44
2023-03-29T11:36:02.330Z,44
2023-03-29T11:37:02.333Z,44
2023-03-29T11:38:02.188Z,44
2023-03-29T11:39:02.261Z,45
2023-03-29T11:40:02.082Z,45
2023-03-29T11:41:02.572Z,44
2023-03-29T11:42:01.998Z,46
2023-03-29T11:43:01.837Z,43
2023-03-29T11:44:01.929Z,43
2023-03-29T11:45:01.787Z,45
2023-03-29T11:46:01.751Z,45
2023-03-29T11:47:01.954Z,45
2023-03-29T11:48:02.099Z,44
2023-03-29T11:49:02.126Z,44
2023-03-29T11:50:01.790Z,46
2023-03-29T11:51:02.218Z,44
2023-03-29T11:52:02.054Z,46
2023-03-29T11:53:02.017Z,44
2023-03-29T11:54:02.090Z,45
2023-03-29T11:55:01.887Z,45
2023-03-29T11:56:01.898Z,45
2023-03-29T11:57:01.919Z,45
2023-03-29T11:58:01.715Z,45
2023-03-29T11:59:01.779Z,45
2023-03-29T12:00:02.346Z,45
2023-03-29T12:01:02.791Z,45
2023-03-29T12:02:02.302Z,47
2023-03-29T12:03:02.439Z,45
2023-03-29T12:04:02.643Z,45
2023-03-29T12:05:01.452Z,45
2023-03-29T12:06:02.507Z,46
2023-03-29T12:07:02.333Z,47
2023-03-29T12:08:02.446Z,46
2023-03-29T12:09:02.268Z,46
2023-03-29T12:10:02.336Z,46
2023-03-29T12:11:02.707Z,46
2023-03-29T12:12:01.839Z,45
2023-03-29T12:13:01.685Z,46
2023-03-29T12:14:01.765Z,46
2023-03-29T12:15:01.611Z,45
2023-03-29T12:16:01.665Z,46
2023-03-29T12:17:01.706Z,47
2023-03-29T12:18:01.725Z,46
2023-03-29T12:19:01.449Z,47
2023-03-29T12:20:02.500Z,48
2023-03-29T12:21:02.376Z,47
2023-03-29T12:22:02.421Z,47
2023-03-29T12:23:02.351Z,47
2023-03-29T12:24:02.486Z,47
2023-03-29T12:25:02.414Z,47
2023-03-29T12:26:02.537Z,47
2023-03-29T12:27:02.388Z,47
2023-03-29T12:28:02.461Z,47
2023-03-29T12:29:02.437Z,46
2023-03-29T12:30:02.519Z,47
2023-03-29T12:31:02.918Z,47
2023-03-29T12:32:02.341Z,46
2023-03-29T12:33:02.424Z,46
2023-03-29T12:34:02.227Z,47
2023-03-29T12:35:02.270Z,47
2023-03-29T12:36:02.325Z,46
2023-03-29T12:37:02.144Z,46
2023-03-29T12:38:02.125Z,46
2023-03-29T12:39:01.977Z,47
2023-03-29T12:40:01.891Z,47
2023-03-29T12:41:02.426Z,46
2023-03-29T12:42:02.506Z,47
2023-03-29T12:43:02.361Z,47
2023-03-29T12:44:02.389Z,47
2023-03-29T12:45:02.348Z,47
2023-03-29T12:46:02.951Z,47
2023-03-29T12:48:02.275Z,47
2023-03-29T12:49:01.961Z,45
2023-03-29T12:50:01.931Z,46
2023-03-29T12:51:02.002Z,48
2023-03-29T12:52:01.851Z,46
2023-03-29T12:53:01.872Z,46
2023-03-29T12:54:01.729Z,45
2023-03-29T12:55:01.742Z,46
2023-03-29T12:56:02.270Z,45
2023-03-29T12:57:01.830Z,45
2023-03-29T12:58:01.787Z,47
2023-03-29T12:59:01.662Z,46
2023-03-29T13:00:02.446Z,45
2023-03-29T13:01:06.213Z,46
2023-03-29T13:02:02.337Z,45
2023-03-29T13:03:02.298Z,45
2023-03-29T13:04:02.234Z,46
2023-03-29T13:05:02.244Z,46
2023-03-29T13:06:02.658Z,47
2023-03-29T13:07:01.840Z,46
2023-03-29T13:08:01.861Z,47
2023-03-29T13:09:01.746Z,48
2023-03-29T13:10:01.839Z,47
2023-03-29T13:11:01.631Z,47
2023-03-29T13:12:01.669Z,48
2023-03-29T13:13:01.523Z,48
2023-03-29T13:14:01.609Z,47
2023-03-29T13:15:02.546Z,48
2023-03-29T13:16:03.026Z,47
2023-03-29T13:17:19.069Z,47
2023-03-29T13:18:02.055Z,46
2023-03-29T13:19:01.933Z,47
2023-03-29T13:20:01.826Z,48
2023-03-29T13:21:01.848Z,47
2023-03-29T13:22:01.685Z,47
2023-03-29T13:23:01.750Z,47
2023-03-29T13:24:01.656Z,47
2023-03-29T13:25:01.702Z,46
2023-03-29T13:26:01.926Z,47
2023-03-29T13:27:02.228Z,46
2023-03-29T13:28:02.275Z,47
2023-03-29T13:29:02.102Z,46
2023-03-29T13:30:02.047Z,46
2023-03-29T13:31:02.163Z,46
2023-03-29T13:32:02.008Z,47
2023-03-29T13:33:01.960Z,46
2023-03-29T13:34:02.011Z,46
2023-03-29T13:35:01.857Z,48
2023-03-29T13:36:02.644Z,47
2023-03-29T13:37:01.855Z,47
2023-03-29T13:38:01.877Z,47
2023-03-29T13:39:01.704Z,46
2023-03-29T13:40:01.802Z,46
2023-03-29T13:41:01.615Z,46
2023-03-29T13:42:01.658Z,46
2023-03-29T13:43:01.518Z,45
2023-03-29T13:44:01.539Z,46
2023-03-29T13:45:02.562Z,46
2023-03-29T13:46:02.715Z,47
2023-03-29T13:48:06.331Z,47
2023-03-29T13:49:02.414Z,47
2023-03-29T13:50:02.152Z,46
2023-03-29T13:51:02.257Z,47
2023-03-29T13:52:02.065Z,48
2023-03-29T13:53:02.021Z,47
2023-03-29T13:54:02.036Z,48
2023-03-29T13:55:01.932Z,47
2023-03-29T13:56:02.619Z,47
2023-03-29T13:57:02.126Z,47
2023-03-29T13:58:01.957Z,47
2023-03-29T13:59:01.966Z,47
2023-03-29T14:00:02.856Z,48
2023-03-29T14:01:01.831Z,48
2023-03-29T14:02:01.971Z,46
2023-03-29T14:03:01.996Z,47
2023-03-29T14:04:01.811Z,47
2023-03-29T14:05:01.872Z,46
2023-03-29T14:06:02.624Z,46
2023-03-29T14:07:01.759Z,46
2023-03-29T14:08:01.800Z,46
2023-03-29T14:09:01.668Z,46
2023-03-29T14:10:01.723Z,47
2023-03-29T14:11:01.552Z,46
2023-03-29T14:12:01.596Z,45
2023-03-29T14:13:02.593Z,44
2023-03-29T14:14:02.401Z,44
2023-03-29T14:15:02.465Z,44
2023-03-29T14:16:03.495Z,44
2023-03-29T14:17:02.425Z,45
2023-03-29T14:18:02.285Z,44
2023-03-29T14:19:02.065Z,43
2023-03-29T14:20:01.989Z,44
2023-03-29T14:21:02.098Z,46
2023-03-29T14:22:01.942Z,44
2023-03-29T14:23:01.946Z,45